Time;durP1;ratioP1;P1;durP2;ratioP2;P2;SDS_P1;SDS_P2;PMS_P1;PMS_P2;Temp;Humidity;BMP_temperature;BMP_pressure;BME280_temperature;BME280_humidity;BME280_pressure;Samples;Min_cycle;Max_cycle;Signal;HPM_P1;HPM_P2
2022/01/18 00:00:39;;;;;;;0.22;0.20;;;;;;;23.47;9.24;100037.31;5035303;28;20036;-75
2022/01/18 00:03:05;;;;;;;0.20;0.20;;;;;;;23.44;9.18;100047.72;5034928;28;20037;-75
2022/01/18 00:05:30;;;;;;;0.10;0.10;;;;;;;23.38;8.97;100048.00;5034899;28;20071;-76
2022/01/18 00:07:57;;;;;;;0.10;0.10;;;;;;;23.42;9.15;100069.00;5034845;28;20124;-75
2022/01/18 00:10:25;;;;;;;0.10;0.10;;;;;;;23.40;9.01;100065.75;5035185;28;20024;-74
2022/01/18 00:13:09;;;;;;;0.10;0.10;;;;;;;23.33;9.30;100081.56;5035009;28;20037;-75
2022/01/18 00:15:40;;;;;;;0.20;0.20;;;;;;;23.46;9.13;100084.78;5035164;28;20459;-75
2022/01/18 00:18:09;;;;;;;0.10;0.10;;;;;;;23.43;9.18;100080.72;5035028;28;20060;-75
2022/01/18 00:23:22;;;;;;;0.20;0.20;;;;;;;23.31;9.19;100102.84;5034722;28;20095;-74
2022/01/18 00:25:51;;;;;;;0.10;0.10;;;;;;;23.39;9.23;100094.09;5034805;28;20422;-76
2022/01/18 00:28:17;;;;;;;0.10;0.10;;;;;;;23.40;8.99;100100.34;5034803;28;20064;-74
2022/01/18 00:33:42;;;;;;;0.15;0.15;;;;;;;23.31;9.08;100100.13;5034583;28;20095;-75
2022/01/18 00:36:11;;;;;;;0.20;0.20;;;;;;;23.34;9.17;100110.47;5034709;28;20052;-75
2022/01/18 00:38:47;;;;;;;0.10;0.10;;;;;;;23.34;9.13;100115.13;5034547;28;20369;-74
2022/01/18 00:41:13;;;;;;;0.10;0.10;;;;;;;23.39;9.14;100120.56;5034475;28;20449;-74
2022/01/18 00:43:39;;;;;;;0.10;0.10;;;;;;;23.31;9.11;100137.50;5034211;28;20123;-74
2022/01/18 00:46:05;;;;;;;0.20;0.20;;;;;;;23.36;8.91;100142.91;5034318;28;20045;-74
2022/01/18 00:48:33;;;;;;;0.30;0.30;;;;;;;23.28;9.07;100148.94;5034392;28;20456;-75
2022/01/18 00:50:58;;;;;;;0.20;0.20;;;;;;;23.34;9.23;100159.56;5034032;28;20553;-74
2022/01/18 00:53:25;;;;;;;0.30;0.30;;;;;;;23.34;9.17;100164.19;5034342;28;20108;-76
2022/01/18 00:56:11;;;;;;;0.13;0.13;;;;;;;23.31;9.38;100165.56;5035023;28;20044;-75
2022/01/18 00:58:39;;;;;;;0.20;0.20;;;;;;;23.33;9.15;100168.81;5033803;28;20088;-75
2022/01/18 01:01:05;;;;;;;0.30;0.30;;;;;;;23.39;8.97;100177.81;5034002;28;20028;-74
2022/01/18 01:03:30;;;;;;;0.30;0.20;;;;;;;23.34;9.19;100181.38;5033782;28;20026;-74
2022/01/18 01:05:56;;;;;;;0.10;0.10;;;;;;;23.29;8.95;100180.59;5034129;28;20086;-74
2022/01/18 01:08:21;;;;;;;0.10;0.10;;;;;;;23.28;9.02;100182.47;5034345;28;20038;-73
2022/01/18 01:10:47;;;;;;;0.20;0.20;;;;;;;23.31;9.09;100183.84;5034052;28;20029;-75
2022/01/18 01:13:12;;;;;;;0.20;0.20;;;;;;;23.21;9.19;100173.78;5033763;28;20464;-73
2022/01/18 01:16:02;;;;;;;0.20;0.20;;;;;;;23.24;9.12;100184.13;5033866;28;20025;-74
2022/01/18 01:32:26;;;;;;;0.17;0.17;;;;;;;23.31;9.08;100198.28;5033860;28;20087;-75
2022/01/18 01:34:59;;;;;;;0.10;0.10;;;;;;;23.27;9.10;100208.13;5033348;28;20029;-74
2022/01/18 01:45:26;;;;;;;0.20;0.20;;;;;;;23.35;9.15;100220.34;5033350;28;20032;-74
2022/01/18 01:47:53;;;;;;;0.10;0.10;;;;;;;23.32;9.15;100231.81;5033064;28;20046;-75
2022/01/18 01:50:20;;;;;;;0.20;0.20;;;;;;;23.31;9.12;100241.91;5033535;28;20075;-75
2022/01/18 01:52:46;;;;;;;0.20;0.20;;;;;;;23.40;9.12;100245.72;5033180;28;20412;-75
2022/01/18 01:55:12;;;;;;;0.20;0.20;;;;;;;23.25;9.05;100253.94;5033427;28;20057;-75
2022/01/18 01:57:38;;;;;;;0.20;0.20;;;;;;;23.25;9.00;100252.00;5031964;28;20539;-75
2022/01/18 02:00:05;;;;;;;0.20;0.20;;;;;;;23.28;8.96;100256.06;5033100;28;20028;-75
2022/01/18 02:02:30;;;;;;;0.20;0.20;;;;;;;23.22;9.26;100252.56;5033010;28;20084;-75
2022/01/18 02:04:56;;;;;;;0.20;0.20;;;;;;;23.29;9.17;100257.72;5033388;28;20017;-75
2022/01/18 02:07:21;;;;;;;0.10;0.10;;;;;;;23.21;9.03;100266.47;5033364;28;20025;-74
2022/01/18 02:09:47;;;;;;;0.20;0.10;;;;;;;23.33;9.10;100272.44;5033290;28;20034;-75
2022/01/18 02:12:12;;;;;;;0.10;0.10;;;;;;;23.29;9.13;100278.72;5033417;28;20025;-76
2022/01/18 02:14:40;;;;;;;0.20;0.20;;;;;;;23.24;8.99;100288.53;5032915;28;20464;-75
2022/01/18 02:22:33;;;;;;;0.10;0.10;;;;;;;23.30;9.09;100305.72;5037087;28;20048;-75
2022/01/18 02:24:58;;;;;;;0.20;0.20;;;;;;;23.23;9.11;100305.16;5036817;28;20029;-75
2022/01/18 02:27:24;;;;;;;0.20;0.20;;;;;;;23.29;8.90;100314.97;5037088;28;20028;-74
2022/01/18 02:29:49;;;;;;;0.20;0.20;;;;;;;23.27;9.14;100324.50;5037141;28;20032;-75
2022/01/18 02:32:15;;;;;;;0.10;0.10;;;;;;;23.24;9.11;100336.81;5036999;28;20478;-74
2022/01/18 02:34:40;;;;;;;0.20;0.10;;;;;;;23.32;8.86;100352.63;5036660;28;20495;-75
2022/01/18 02:37:05;;;;;;;0.32;0.20;;;;;;;23.21;8.91;100353.69;5036960;28;20033;-75
2022/01/18 02:39:31;;;;;;;0.20;0.20;;;;;;;23.33;8.88;100367.88;5036850;28;20037;-75
2022/01/18 02:42:02;;;;;;;0.15;0.15;;;;;;;23.28;9.23;100356.97;5037172;28;20037;-75
2022/01/18 02:44:27;;;;;;;0.10;0.10;;;;;;;23.21;9.10;100359.16;5036745;28;20056;-75
2022/01/18 02:46:53;;;;;;;0.20;0.20;;;;;;;23.20;9.00;100349.34;5036683;28;20124;-75
2022/01/18 02:49:18;;;;;;;0.10;0.10;;;;;;;23.23;8.97;100360.53;5037337;28;20348;-74
2022/01/18 02:51:44;;;;;;;0.15;0.15;;;;;;;23.22;9.19;100368.97;5036851;28;20376;-74
2022/01/18 02:54:11;;;;;;;0.17;0.17;;;;;;;23.22;9.08;100363.53;5036673;28;20076;-76
2022/01/18 02:56:43;;;;;;;0.10;0.10;;;;;;;23.19;8.96;100374.97;5036335;28;20460;-74
2022/01/18 02:59:16;;;;;;;1.35;0.20;;;;;;;23.16;9.10;100372.78;5036178;28;20464;-75
2022/01/18 03:04:26;;;;;;;0.20;0.20;;;;;;;23.31;9.09;100391.88;5036265;28;20491;-75
2022/01/18 03:06:51;;;;;;;0.20;0.20;;;;;;;23.29;9.24;100398.69;5036172;28;20029;-76
2022/01/18 03:09:16;;;;;;;0.20;0.20;;;;;;;23.28;8.91;100394.31;5018268;28;20060;-74
2022/01/18 03:11:42;;;;;;;0.50;0.20;;;;;;;23.31;9.09;100399.25;5036294;28;20380;-75
2022/01/18 03:14:07;;;;;;;0.13;0.10;;;;;;;23.22;8.94;100397.03;5035950;28;20022;-75
2022/01/18 03:16:33;;;;;;;0.10;0.10;;;;;;;23.23;9.03;100409.59;5035761;28;20357;-75
2022/01/18 03:18:58;;;;;;;0.20;0.20;;;;;;;23.24;8.88;100400.31;5036015;28;20113;-74
2022/01/18 03:21:23;;;;;;;0.10;0.10;;;;;;;23.28;9.10;100402.50;5035993;28;20344;-74
2022/01/18 03:23:54;;;;;;;0.30;0.30;;;;;;;23.19;8.93;100418.59;5035980;28;20452;-74
2022/01/18 03:26:19;;;;;;;0.20;0.20;;;;;;;23.20;9.11;100421.03;5035903;28;20053;-75
2022/01/18 03:28:45;;;;;;;0.20;0.20;;;;;;;23.28;8.99;100416.94;5035519;28;20026;-74
2022/01/18 03:31:10;;;;;;;0.20;0.20;;;;;;;23.25;9.10;100417.50;5035540;28;20022;-73
2022/01/18 03:33:35;;;;;;;0.20;0.20;;;;;;;23.25;8.81;100409.34;5035951;28;20025;-75
2022/01/18 03:36:01;;;;;;;0.10;0.10;;;;;;;23.17;9.11;100415.31;5035797;28;20021;-75
2022/01/18 03:38:29;;;;;;;0.20;0.20;;;;;;;23.21;9.05;100416.41;5035673;28;20034;-75
2022/01/18 03:40:57;;;;;;;0.10;0.10;;;;;;;23.18;9.10;100406.03;5036052;28;20039;-75
2022/01/18 03:43:22;;;;;;;0.20;0.20;;;;;;;23.25;8.90;100409.34;5035658;28;20033;-74
2022/01/18 03:45:48;;;;;;;0.10;0.10;;;;;;;23.16;9.08;100413.66;5035377;28;20029;-75
2022/01/18 03:48:29;;;;;;;0.17;0.17;;;;;;;23.16;8.92;100419.97;5035300;28;20030;-75
2022/01/18 03:50:55;;;;;;;0.20;0.20;;;;;;;23.22;9.17;100418.03;5035157;28;20190;-76
2022/01/18 03:53:21;;;;;;;0.10;0.10;;;;;;;23.24;8.97;100415.88;5035471;28;20026;-75
2022/01/18 03:55:47;;;;;;;0.10;0.10;;;;;;;23.22;8.96;100423.50;5035522;28;20101;-75
2022/01/18 03:58:12;;;;;;;0.10;0.10;;;;;;;23.28;8.78;100414.22;5035157;28;20044;-75
2022/01/18 04:00:37;;;;;;;0.10;0.10;;;;;;;23.22;8.81;100407.13;5035310;28;20022;-75
2022/01/18 04:03:03;;;;;;;0.20;0.20;;;;;;;23.18;9.14;100406.03;5035261;28;20376;-74
2022/01/18 04:05:28;;;;;;;0.10;0.10;;;;;;;23.21;8.96;100411.75;5035300;28;20136;-74
2022/01/18 04:07:54;;;;;;;0.65;0.20;;;;;;;23.22;8.97;100412.59;5034948;28;20041;-75
2022/01/18 04:10:19;;;;;;;0.20;0.20;;;;;;;23.27;8.87;100411.75;5035305;28;20029;-74
2022/01/18 04:12:45;;;;;;;0.20;0.20;;;;;;;23.34;8.75;100426.78;5034960;28;20460;-75
2022/01/18 04:15:12;;;;;;;0.38;0.10;;;;;;;23.29;9.05;100429.50;5034886;28;20037;-74
2022/01/18 04:28:39;;;;;;;0.15;0.15;;;;;;;23.45;8.69;100454.88;4935266;29;20055;-75
2022/01/18 04:31:05;;;;;;;0.20;0.20;;;;;;;23.40;8.84;100463.88;4935282;29;20048;-75
2022/01/18 04:33:31;;;;;;;0.20;0.20;;;;;;;23.51;8.76;100464.69;4935147;29;20032;-75
2022/01/18 04:35:56;;;;;;;0.20;0.20;;;;;;;23.46;8.87;100469.31;4935171;29;20028;-72
2022/01/18 04:38:22;;;;;;;0.20;0.20;;;;;;;23.54;8.82;100479.69;4935113;29;20424;-75
2022/01/18 04:40:48;;;;;;;0.10;0.10;;;;;;;23.52;8.81;100476.41;4934828;29;20027;-73
2022/01/18 04:48:35;;;;;;;0.20;0.20;;;;;;;23.64;8.46;100501.50;4935069;29;20039;-75
2022/01/18 04:51:08;;;;;;;0.15;0.15;;;;;;;23.59;8.54;100501.50;4934975;29;20114;-76
2022/01/18 04:53:35;;;;;;;0.20;0.20;;;;;;;23.57;8.81;100500.97;4934783;29;20045;-75
2022/01/18 04:56:04;;;;;;;0.10;0.10;;;;;;;23.61;8.59;100511.06;4919247;29;20326;-74
2022/01/18 04:58:30;;;;;;;0.10;0.10;;;;;;;23.61;8.83;100518.41;4934927;29;20047;-76
2022/01/18 05:00:58;;;;;;;0.20;0.20;;;;;;;23.64;8.49;100523.34;4934679;29;20043;-73
2022/01/18 05:03:24;;;;;;;0.10;0.10;;;;;;;23.65;8.62;100518.72;4955607;28;20045;-76
2022/01/18 05:05:50;;;;;;;0.20;0.20;;;;;;;23.56;8.80;100526.59;5034495;28;20033;-74
2022/01/18 05:08:16;;;;;;;0.20;0.20;;;;;;;23.66;8.80;100521.16;5034580;28;20055;-75
2022/01/18 05:10:42;;;;;;;0.20;0.20;;;;;;;23.57;8.66;100511.88;5034227;28;20452;-76
2022/01/18 05:14:05;;;;;;;0.17;0.17;;;;;;;23.72;8.61;100520.09;5034107;28;20021;-74
2022/01/18 05:24:21;;;;;;;1.65;0.10;;;;;;;23.83;8.67;100550.94;4896546;29;20036;-74
2022/01/18 05:26:46;;;;;;;0.40;0.20;;;;;;;23.84;8.41;100555.31;4897721;29;20045;-75
2022/01/18 05:29:11;;;;;;;0.30;0.30;;;;;;;23.86;8.57;100565.97;4896530;29;20051;-74
2022/01/18 05:31:37;;;;;;;0.47;0.20;;;;;;;23.89;8.63;100568.16;4896203;29;20519;-75
2022/01/18 05:34:02;;;;;;;0.10;0.10;;;;;;;23.97;8.86;100570.31;4896074;29;20033;-73
2022/01/18 05:36:29;;;;;;;0.45;0.20;;;;;;;23.89;9.08;100585.34;4896645;29;20044;-74
2022/01/18 05:38:54;;;;;;;0.20;0.20;;;;;;;23.92;8.84;100586.69;4896577;29;20047;-74
2022/01/18 05:41:20;;;;;;;0.20;0.20;;;;;;;23.86;9.00;100585.88;4896323;29;20431;-74
2022/01/18 05:43:45;;;;;;;1.85;0.20;;;;;;;24.01;9.04;100601.47;4897021;29;20044;-75
2022/01/18 05:46:10;;;;;;;0.20;0.10;;;;;;;24.18;8.75;100602.00;4896070;29;20056;-74
2022/01/18 05:48:36;;;;;;;0.13;0.13;;;;;;;24.13;8.95;100612.94;4896129;29;20051;-73
2022/01/18 05:51:01;;;;;;;0.20;0.20;;;;;;;24.07;9.14;100622.19;4895313;29;20108;-73
2022/01/18 05:53:27;;;;;;;0.10;0.10;;;;;;;24.07;9.15;100630.38;4964500;28;20043;-73
2022/01/18 05:55:53;;;;;;;0.20;0.13;;;;;;;24.24;8.96;100630.13;5006309;28;20049;-73
2022/01/18 05:58:19;;;;;;;0.13;0.13;;;;;;;24.35;8.73;100625.47;5033732;28;20034;-75
2022/01/18 06:00:50;;;;;;;0.20;0.20;;;;;;;24.19;8.68;100625.47;5033720;28;20071;-74
2022/01/18 06:03:18;;;;;;;0.20;0.20;;;;;;;24.17;8.49;100630.38;5034003;28;20124;-75
2022/01/18 06:08:27;;;;;;;0.20;0.20;;;;;;;24.17;8.11;100626.84;5034303;28;20474;-74
2022/01/18 06:10:52;;;;;;;0.57;0.20;;;;;;;24.18;8.60;100629.31;5034125;28;20283;-73
2022/01/18 06:13:18;;;;;;;0.32;0.20;;;;;;;24.14;8.63;100638.31;5033481;28;20026;-73
2022/01/18 06:15:46;;;;;;;0.20;0.20;;;;;;;24.09;8.62;100641.03;5034173;28;20037;-75
2022/01/18 06:18:13;;;;;;;0.20;0.20;;;;;;;24.17;8.50;100641.31;5016056;28;20033;-74
2022/01/18 06:20:40;;;;;;;1.13;0.17;;;;;;;24.21;8.35;100635.31;5033853;28;20021;-74
2022/01/18 06:23:05;;;;;;;0.10;0.10;;;;;;;24.11;8.64;100626.03;5034060;28;20103;-75
2022/01/18 06:25:31;;;;;;;0.22;0.22;;;;;;;24.13;8.66;100629.31;5035467;28;20433;-74
2022/01/18 06:27:56;;;;;;;0.50;0.40;;;;;;;24.21;8.63;100647.03;5034358;28;20033;-75
2022/01/18 06:30:21;;;;;;;2.03;0.40;;;;;;;24.18;8.34;100650.31;5036541;28;20518;-75
2022/01/18 06:32:47;;;;;;;0.70;0.52;;;;;;;24.23;8.70;100650.31;5035276;28;20021;-75
2022/01/18 06:35:13;;;;;;;0.60;0.47;;;;;;;24.36;8.66;100665.34;5035043;28;20017;-74
2022/01/18 06:37:38;;;;;;;0.80;0.40;;;;;;;24.26;8.56;100659.88;5035416;28;20437;-74
2022/01/18 06:40:04;;;;;;;0.65;0.40;;;;;;;24.28;8.42;100653.06;5040648;28;20025;-75
2022/01/18 06:42:31;;;;;;;1.00;0.30;;;;;;;24.27;8.45;100661.53;5045981;28;20075;-74
2022/01/18 06:44:56;;;;;;;0.52;0.30;;;;;;;24.33;8.56;100665.91;5047492;28;20013;-74
2022/01/18 06:47:21;;;;;;;1.17;0.40;;;;;;;24.30;8.41;100664.53;5050527;28;20025;-74
2022/01/18 06:49:47;;;;;;;0.50;0.30;;;;;;;24.34;8.32;100668.34;5054211;28;20055;-76
2022/01/18 06:52:12;;;;;;;0.35;0.32;;;;;;;24.28;8.23;100685.00;5055919;28;20026;-73
2022/01/18 06:54:38;;;;;;;0.88;0.40;;;;;;;24.31;8.27;100684.47;5055272;28;20032;-72
2022/01/18 06:57:03;;;;;;;0.55;0.50;;;;;;;24.15;8.42;100648.97;5034594;28;20049;-74
2022/01/18 06:59:29;;;;;;;0.20;0.20;;;;;;;24.44;8.29;100696.75;5054390;28;20085;-73
2022/01/18 07:01:54;;;;;;;0.28;0.20;;;;;;;24.47;8.41;100698.94;5056004;28;20028;-74
2022/01/18 07:04:20;;;;;;;1.75;0.40;;;;;;;24.37;8.68;100705.25;5059631;28;20023;-75
2022/01/18 07:06:45;;;;;;;0.55;0.50;;;;;;;24.24;8.85;100711.22;5058361;28;20037;-74
2022/01/18 07:09:12;;;;;;;0.60;0.50;;;;;;;24.49;8.33;100713.16;5058334;28;20020;-74
2022/01/18 07:11:37;;;;;;;0.35;0.35;;;;;;;24.25;8.70;100700.03;5059905;28;20099;-73
2022/01/18 07:14:03;;;;;;;0.35;0.30;;;;;;;24.36;8.51;100718.06;5025876;28;20053;-73
2022/01/18 07:16:28;;;;;;;0.35;0.35;;;;;;;24.55;8.39;100709.38;5058753;28;20089;-73
2022/01/18 07:18:53;;;;;;;0.47;0.40;;;;;;;24.41;8.58;100709.06;5057702;28;20025;-73
2022/01/18 07:21:19;;;;;;;2.22;0.30;;;;;;;24.38;8.27;100718.59;5058364;28;20040;-74
2022/01/18 07:23:44;;;;;;;0.40;0.30;;;;;;;24.43;8.51;100720.53;5058120;28;20037;-74
2022/01/18 07:26:10;;;;;;;0.30;0.30;;;;;;;24.37;8.39;100727.91;5059561;28;20598;-74
2022/01/18 07:28:35;;;;;;;0.30;0.25;;;;;;;24.38;8.52;100723.25;5059433;28;20030;-72
2022/01/18 07:31:01;;;;;;;0.30;0.30;;;;;;;24.51;8.30;100730.91;5059198;28;20503;-74
2022/01/18 07:33:26;;;;;;;0.22;0.20;;;;;;;24.38;8.22;100731.44;5058533;28;20030;-74
2022/01/18 07:35:51;;;;;;;1.02;0.40;;;;;;;24.43;8.52;100736.91;5052750;28;20025;-73
2022/01/18 07:38:18;;;;;;;2.65;0.95;;;;;;;24.60;8.26;100733.16;5050421;28;20034;-75
2022/01/18 07:40:47;;;;;;;3.33;1.25;;;;;;;24.52;8.12;100723.53;5050999;28;20143;-74
2022/01/18 07:43:16;;;;;;;1.77;0.93;;;;;;;24.53;8.39;100736.94;5036798;28;20046;-74
2022/01/18 07:45:43;;;;;;;2.20;1.00;;;;;;;24.54;8.45;100744.06;5035924;28;20026;-75
2022/01/18 07:48:09;;;;;;;1.45;0.70;;;;;;;24.44;8.53;100727.66;5034801;28;20110;-74
2022/01/18 07:50:35;;;;;;;1.48;0.60;;;;;;;24.66;8.31;100737.50;5035782;28;20479;-74
2022/01/18 07:53:01;;;;;;;3.35;0.95;;;;;;;24.53;8.28;100745.13;5035839;28;20083;-73
2022/01/18 07:55:26;;;;;;;2.10;0.40;;;;;;;24.65;8.14;100738.63;5018546;28;20029;-74
2022/01/18 07:57:52;;;;;;;0.90;0.50;;;;;;;24.65;8.38;100749.53;5035708;28;20368;-74
2022/01/18 08:00:17;;;;;;;1.75;0.47;;;;;;;24.69;8.44;100748.69;5035310;28;20025;-73
2022/01/18 08:02:43;;;;;;;0.65;0.47;;;;;;;24.73;8.11;100746.25;5036331;28;20025;-74
2022/01/18 08:05:09;;;;;;;0.73;0.50;;;;;;;24.78;8.10;100754.44;5035242;28;20566;-75
2022/01/18 08:07:34;;;;;;;0.55;0.30;;;;;;;24.55;8.31;100737.50;5036755;28;20048;-74
2022/01/18 08:10:00;;;;;;;1.85;0.40;;;;;;;24.50;8.56;100748.41;5017708;28;20345;-74
2022/01/18 08:12:25;;;;;;;0.40;0.40;;;;;;;24.68;8.37;100762.63;5034762;28;20048;-74
2022/01/18 08:14:54;;;;;;;0.80;0.45;;;;;;;24.72;8.35;100763.75;5035248;28;20025;-73
2022/01/18 08:17:20;;;;;;;3.75;0.35;;;;;;;24.91;8.74;100764.81;5035872;28;20471;-75
2022/01/18 08:19:45;;;;;;;0.60;0.40;;;;;;;24.92;8.29;100766.47;5037470;28;20041;-74
2022/01/18 08:22:11;;;;;;;0.38;0.30;;;;;;;24.75;8.36;100760.47;5038321;28;20037;-74
2022/01/18 08:24:36;;;;;;;0.98;0.20;;;;;;;24.88;8.18;100748.97;5035583;28;20041;-73
2022/01/18 08:27:03;;;;;;;2.38;0.73;;;;;;;24.71;8.38;100754.72;5035883;28;20434;-74
2022/01/18 08:29:29;;;;;;;4.97;0.80;;;;;;;24.78;8.44;100748.97;5035084;28;20037;-73
2022/01/18 08:31:55;;;;;;;3.03;1.20;;;;;;;24.80;8.15;100752.28;5035256;28;20033;-76
2022/01/18 08:34:21;;;;;;;6.55;2.63;;;;;;;24.78;8.49;100770.03;5036302;28;20131;-75
2022/01/18 08:36:46;;;;;;;5.57;2.42;;;;;;;24.70;8.29;100769.50;5035559;28;20025;-74
2022/01/18 08:39:11;;;;;;;5.05;2.03;;;;;;;25.17;7.99;100767.53;5035228;28;20083;-74
2022/01/18 08:41:37;;;;;;;6.55;2.42;;;;;;;25.03;8.26;100766.47;5035311;28;20029;-74
2022/01/18 08:44:02;;;;;;;2.17;1.25;;;;;;;25.34;8.18;100769.19;5034990;28;20033;-75
2022/01/18 08:46:29;;;;;;;2.75;1.25;;;;;;;25.49;8.24;100785.53;5035194;28;20175;-75
2022/01/18 08:48:54;;;;;;;6.82;1.77;;;;;;;25.62;7.95;100795.91;5035190;28;20045;-74
2022/01/18 08:51:20;;;;;;;3.17;1.50;;;;;;;25.70;7.76;100790.94;5034273;28;20029;-74
2022/01/18 08:53:50;;;;;;;3.78;1.05;;;;;;;25.57;7.88;100801.38;5017000;28;20053;-74
2022/01/18 08:56:19;;;;;;;2.88;1.15;;;;;;;25.43;8.00;100801.16;5034778;28;20368;-74
2022/01/18 08:58:46;;;;;;;5.32;2.47;;;;;;;25.76;7.99;100806.25;5034399;28;20025;-74
2022/01/18 09:01:12;;;;;;;31.95;12.85;;;;;;;25.79;7.92;100811.19;5016134;28;20033;-75
2022/01/18 09:03:37;;;;;;;17.83;6.50;;;;;;;25.92;8.10;100812.50;5034267;28;20025;-74
2022/01/18 09:06:06;;;;;;;16.05;5.60;;;;;;;25.98;8.03;100804.00;5034727;28;20029;-76
2022/01/18 09:08:32;;;;;;;55.83;20.17;;;;;;;26.02;7.83;100802.34;5034573;28;20029;-74
2022/01/18 09:10:57;;;;;;;27.58;10.60;;;;;;;25.90;8.00;100807.28;5034901;28;20022;-74
2022/01/18 09:13:22;;;;;;;12.25;5.50;;;;;;;25.84;7.99;100806.50;5034183;28;20032;-74
2022/01/18 09:15:48;;;;;;;11.35;3.65;;;;;;;25.92;7.81;100815.22;5034390;28;20022;-73
2022/01/18 09:18:14;;;;;;;6.22;2.65;;;;;;;25.99;7.72;100800.19;5034584;28;20029;-74
2022/01/18 09:20:39;;;;;;;4.90;1.80;;;;;;;25.91;7.54;100792.50;5016929;28;20033;-74
2022/01/18 09:23:04;;;;;;;5.70;1.73;;;;;;;25.90;7.56;100795.53;5034198;28;20357;-74
2022/01/18 09:25:30;;;;;;;2.55;1.20;;;;;;;25.93;7.56;100801.25;5033204;28;20026;-74
2022/01/18 09:27:56;;;;;;;5.07;1.10;;;;;;;25.85;7.67;100804.56;5033520;28;20045;-75
2022/01/18 09:30:24;;;;;;;3.13;1.40;;;;;;;25.89;7.68;100805.66;5034186;28;20025;-74
2022/01/18 09:32:50;;;;;;;2.00;1.00;;;;;;;25.81;7.61;100814.47;5034440;28;20025;-74
2022/01/18 09:35:15;;;;;;;6.55;2.17;;;;;;;25.80;7.53;100801.84;5034003;28;20432;-74
2022/01/18 09:37:43;;;;;;;9.05;3.47;;;;;;;25.88;7.67;100814.16;5034288;28;20468;-75
2022/01/18 09:40:09;;;;;;;9.35;3.58;;;;;;;25.71;7.97;100803.53;5033980;28;20029;-73
2022/01/18 09:42:37;;;;;;;5.93;2.25;;;;;;;25.75;7.76;100821.03;5034390;28;20025;-74
2022/01/18 09:45:07;;;;;;;5.82;1.88;;;;;;;25.82;7.62;100810.63;5034213;28;20022;-73
2022/01/18 09:47:37;;;;;;;4.50;1.98;;;;;;;25.71;7.68;100803.53;5012853;28;20049;-73
2022/01/18 09:50:04;;;;;;;3.10;1.48;;;;;;;25.59;7.82;100799.19;5014511;28;20453;-74
2022/01/18 09:52:29;;;;;;;2.72;1.27;;;;;;;25.67;7.63;100814.22;4980613;28;20172;-73
2022/01/18 09:54:56;;;;;;;1.65;1.00;;;;;;;25.78;7.54;100812.28;4996590;28;20033;-74
2022/01/18 09:57:21;;;;;;;2.00;0.80;;;;;;;25.48;7.64;100816.75;5014819;28;20490;-73
2022/01/18 09:59:47;;;;;;;1.00;0.68;;;;;;;25.64;7.68;100810.13;5014750;28;20037;-73
2022/01/18 10:02:13;;;;;;;2.03;0.60;;;;;;;25.63;7.52;100808.50;4996882;28;20022;-75
2022/01/18 10:04:42;;;;;;;1.38;0.80;;;;;;;25.60;7.82;100803.56;5013673;28;20056;-74
2022/01/18 10:07:08;;;;;;;0.98;0.55;;;;;;;25.77;7.63;100792.28;5014757;28;20157;-74
2022/01/18 10:09:35;;;;;;;0.40;0.30;;;;;;;25.67;7.81;100809.56;5014964;28;20040;-73
2022/01/18 10:12:15;;;;;;;1.55;0.68;;;;;;;25.93;7.42;100809.47;4964670;28;20113;-73
2022/01/18 10:15:01;;;;;;;1.45;0.40;;;;;;;26.05;7.71;100807.25;5015696;28;20041;-74
2022/01/18 10:17:37;;;;;;;1.35;0.47;;;;;;;26.02;7.75;100829.72;4963134;28;20138;-73
2022/01/18 10:20:02;;;;;;;4.07;1.40;;;;;;;26.10;7.86;100843.94;4996662;28;20026;-73
2022/01/18 10:22:35;;;;;;;1.42;0.80;;;;;;;26.29;7.79;100841.41;4995695;28;20033;-73
2022/01/18 10:25:19;;;;;;;0.70;0.40;;;;;;;26.26;8.07;100820.84;4994246;28;20035;-72
2022/01/18 10:27:47;;;;;;;0.73;0.47;;;;;;;26.23;7.67;100804.97;4961359;28;20116;-73
2022/01/18 10:30:20;;;;;;;1.63;0.40;;;;;;;26.30;7.74;100800.03;4994377;28;20073;-72
2022/01/18 10:33:13;;;;;;;4.28;2.60;;;;;;;26.34;8.00;100805.75;4994179;28;20030;-73
2022/01/18 10:36:09;;;;;;;9.35;3.63;;;;;;;26.30;7.83;100805.50;4994577;28;20057;-73
2022/01/18 10:38:35;;;;;;;10.70;4.55;;;;;;;26.08;7.95;100805.03;4996388;28;20034;-74
2022/01/18 10:41:30;;;;;;;11.68;5.00;;;;;;;26.13;7.95;100805.03;4980177;28;20533;-73
2022/01/18 10:44:14;;;;;;;19.63;9.00;;;;;;;26.11;7.91;100805.31;4997730;28;20033;-74
2022/01/18 10:46:47;;;;;;;;;;;;;;;26.35;7.68;100799.97;4999692;28;20065;-73
2022/01/18 10:49:25;;;;;;;20.63;9.23;;;;;;;25.95;7.91;100803.75;4997414;28;19914;-73
2022/01/18 10:51:56;;;;;;;25.50;10.75;;;;;;;26.04;7.84;100802.91;4998658;28;20053;-72
2022/01/18 10:54:21;;;;;;;15.52;6.22;;;;;;;25.92;7.97;100796.06;4997270;28;20029;-72
2022/01/18 10:56:49;;;;;;;10.85;4.47;;;;;;;26.24;7.72;100801.13;4979883;28;20034;-72
2022/01/18 10:59:22;;;;;;;15.05;4.72;;;;;;;26.29;7.84;100812.06;4997367;28;20041;-73
2022/01/18 11:02:10;;;;;;;10.25;4.45;;;;;;;26.36;7.96;100814.50;4997038;28;20029;-74
2022/01/18 11:04:37;;;;;;;6.75;2.63;;;;;;;26.49;7.70;100808.38;4997227;28;20037;-74
2022/01/18 11:07:03;;;;;;;4.70;2.00;;;;;;;26.51;7.64;100805.34;4998267;28;20488;-73
2022/01/18 11:09:29;;;;;;;2.05;1.10;;;;;;;26.41;7.68;100809.78;4997726;28;20042;-73
2022/01/18 11:11:56;;;;;;;2.30;0.77;;;;;;;26.57;7.72;100809.69;4979735;28;20031;-73
2022/01/18 11:14:23;;;;;;;1.05;0.50;;;;;;;26.64;7.58;100815.69;4997253;28;20022;-74
2022/01/18 11:16:49;;;;;;;0.60;0.47;;;;;;;26.51;7.70;100802.59;5009116;28;20021;-74
2022/01/18 11:21:48;;;;;;;7.88;2.90;;;;;;;26.56;7.70;100810.78;5016154;28;20025;-75
2022/01/18 11:24:17;;;;;;;2.25;0.85;;;;;;;26.67;7.80;100808.84;5016618;28;20077;-75
2022/01/18 11:26:44;;;;;;;0.95;0.70;;;;;;;26.82;7.90;100802.41;5015994;28;20116;-75
2022/01/18 11:29:10;;;;;;;0.88;0.50;;;;;;;26.86;7.84;100790.59;4966068;28;20046;-74
2022/01/18 11:31:37;;;;;;;0.52;0.32;;;;;;;27.02;7.76;100783.03;5017145;28;20159;-74
2022/01/18 11:34:03;;;;;;;1.95;0.85;;;;;;;27.04;7.76;100796.47;4998875;28;20022;-74
2022/01/18 11:36:35;;;;;;;3.90;1.73;;;;;;;27.10;7.71;100796.13;5015443;28;20149;-74
2022/01/18 11:39:06;;;;;;;1.55;0.50;;;;;;;27.15;7.68;100790.59;4999579;28;20045;-76
2022/01/18 11:41:35;;;;;;;1.83;0.80;;;;;;;27.15;7.58;100793.34;5017478;28;20061;-75
2022/01/18 11:44:15;;;;;;;2.40;0.90;;;;;;;27.19;7.79;100792.75;5016187;28;20040;-75
2022/01/18 11:46:48;;;;;;;1.48;0.80;;;;;;;27.02;7.55;100793.19;4969797;28;20097;-75
2022/01/18 11:49:28;;;;;;;2.53;0.75;;;;;;;27.08;7.69;100781.06;5033462;28;20029;-76
2022/01/18 11:52:03;;;;;;;1.83;0.68;;;;;;;27.09;7.48;100775.28;4985982;28;20045;-75
2022/01/18 11:57:21;;;;;;;1.15;0.50;;;;;;;26.96;7.63;100776.78;5036831;28;20038;-75
2022/01/18 11:59:46;;;;;;;1.15;0.50;;;;;;;27.04;7.50;100772.59;5036954;28;20383;-74
2022/01/18 12:02:14;;;;;;;0.85;0.50;;;;;;;26.91;7.53;100781.50;5037233;28;20030;-76
2022/01/18 12:07:11;;;;;;;1.35;0.60;;;;;;;26.86;7.44;100759.63;5037452;28;20046;-75
2022/01/18 12:09:47;;;;;;;0.90;0.50;;;;;;;26.88;7.98;100769.16;5037209;28;20026;-76
2022/01/18 12:12:40;;;;;;;0.52;0.38;;;;;;;26.85;7.82;100755.22;5035673;28;20460;-78
2022/01/18 12:15:15;;;;;;;0.45;0.40;;;;;;;26.73;7.72;100750.13;5035784;28;20108;-76
2022/01/18 12:17:46;;;;;;;1.58;0.30;;;;;;;26.71;7.74;100752.31;5035393;28;20112;-75
2022/01/18 12:20:37;;;;;;;0.38;0.32;;;;;;;26.82;7.79;100736.59;5035669;28;20034;-73
2022/01/18 12:23:06;;;;;;;1.90;0.30;;;;;;;26.78;7.91;100733.63;5035786;28;20029;-75
2022/01/18 12:25:34;;;;;;;0.47;0.30;;;;;;;26.68;7.85;100723.59;5035689;28;20108;-75
2022/01/18 12:29:07;;;;;;;2.83;0.40;;;;;;;26.87;7.80;100725.59;5036776;28;20034;-75
2022/01/18 12:34:24;;;;;;;0.40;0.40;;;;;;;26.74;7.89;100733.38;4980136;28;20540;-75
2022/01/18 12:36:53;;;;;;;2.75;0.95;;;;;;;26.57;7.69;100733.75;4962064;28;20147;-75
2022/01/18 12:39:18;;;;;;;2.55;1.30;;;;;;;26.78;7.70;100728.13;4960985;28;20026;-75
2022/01/18 12:41:46;;;;;;;3.22;1.38;;;;;;;26.82;7.72;100734.69;4977354;28;20042;-75
2022/01/18 12:44:20;;;;;;;2.88;1.50;;;;;;;26.55;7.87;100718.72;4977305;28;20453;-76
2022/01/18 12:46:57;;;;;;;2.15;0.98;;;;;;;26.61;7.81;100710.19;4976843;28;20105;-76
2022/01/18 12:49:22;;;;;;;1.25;0.70;;;;;;;26.74;7.72;100711.44;4961325;28;20089;-75
2022/01/18 12:51:58;;;;;;;2.03;0.77;;;;;;;26.81;7.48;100713.84;4975521;28;20031;-73